Time;durP1;ratioP1;P1;durP2;ratioP2;P2;SDS_P1;SDS_P2;PMS_P1;PMS_P2;Temp;Humidity;BMP_temperature;BMP_pressure;BME280_temperature;BME280_humidity;BME280_pressure;Samples;Min_cycle;Max_cycle;Signal;HPM_P1;HPM_P2
2023/10/16 00:02:16;;;;;;;1.42;0.70;;;7.70;99.90;;;;;;5046367;28;20044;-83
2023/10/16 00:04:45;;;;;;;2.95;0.57;;;7.70;99.90;;;;;;5019623;28;20447;-83
2023/10/16 00:07:13;;;;;;;2.72;0.70;;;7.80;99.90;;;;;;5018266;28;20037;-83
2023/10/16 00:09:43;;;;;;;1.73;0.50;;;7.70;99.90;;;;;;5053114;28;20474;-82
2023/10/16 00:12:09;;;;;;;3.05;0.60;;;7.70;99.90;;;;;;5041224;28;20036;-83
2023/10/16 00:14:36;;;;;;;2.55;0.60;;;7.80;99.90;;;;;;5036055;28;20036;-84
2023/10/16 00:17:06;;;;;;;2.38;0.52;;;7.70;99.90;;;;;;5064161;28;20041;-83
2023/10/16 00:19:37;;;;;;;3.08;0.52;;;7.70;99.90;;;;;;5065561;28;20052;-84
2023/10/16 00:22:15;;;;;;;1.83;0.52;;;7.70;99.90;;;;;;5035773;28;20037;-84
2023/10/16 00:24:48;;;;;;;2.35;0.47;;;7.70;99.90;;;;;;5033542;28;20373;-84
2023/10/16 00:27:16;;;;;;;2.38;0.50;;;7.70;99.90;;;;;;5065398;28;20044;-84
2023/10/16 00:29:43;;;;;;;2.88;0.70;;;7.70;99.90;;;;;;5044424;28;20037;-84
2023/10/16 00:32:11;;;;;;;3.47;0.60;;;7.70;99.90;;;;;;5041032;28;20045;-84
2023/10/16 00:34:37;;;;;;;1.33;0.30;;;7.70;99.90;;;;;;5044256;28;20033;-83
2023/10/16 00:37:07;;;;;;;3.17;0.43;;;7.70;99.90;;;;;;5034559;28;20079;-83
2023/10/16 00:39:33;;;;;;;3.10;1.17;;;7.60;99.90;;;;;;5019833;28;20102;-84
2023/10/16 00:41:59;;;;;;;1.10;0.40;;;7.70;99.90;;;;;;5023600;28;20045;-84
2023/10/16 00:44:35;;;;;;;1.92;0.50;;;7.70;99.90;;;;;;5016908;28;20128;-84
2023/10/16 00:47:05;;;;;;;2.65;0.40;;;7.70;99.90;;;;;;5015225;28;20124;-84
2023/10/16 00:49:35;;;;;;;1.33;0.35;;;7.70;99.90;;;;;;5045918;28;20476;-83
2023/10/16 00:52:03;;;;;;;1.05;0.40;;;7.60;99.90;;;;;;5031578;28;20071;-84
2023/10/16 00:54:33;;;;;;;1.15;0.38;;;7.60;99.90;;;;;;5048292;28;20037;-84
2023/10/16 00:57:00;;;;;;;2.50;0.35;;;7.60;99.90;;;;;;5033857;28;20095;-83
2023/10/16 00:59:29;;;;;;;0.55;0.22;;;7.60;99.90;;;;;;4998947;28;20069;-84
2023/10/16 01:02:07;;;;;;;2.42;0.50;;;7.60;99.90;;;;;;5032411;28;20575;-84
2023/10/16 01:04:33;;;;;;;1.85;0.40;;;7.60;99.90;;;;;;5007112;28;20040;-84
2023/10/16 01:07:01;;;;;;;2.97;0.60;;;7.60;99.90;;;;;;5019709;28;20116;-84
2023/10/16 01:09:33;;;;;;;1.10;0.30;;;7.60;99.90;;;;;;5012699;28;20041;-84
2023/10/16 01:11:59;;;;;;;1.73;0.50;;;7.60;99.90;;;;;;5030026;28;20099;-84
2023/10/16 01:14:25;;;;;;;3.35;0.45;;;7.60;99.90;;;;;;5031749;28;20044;-84
2023/10/16 01:16:54;;;;;;;0.88;0.40;;;7.50;99.90;;;;;;5009316;28;20140;-84
2023/10/16 01:19:20;;;;;;;1.00;0.30;;;7.40;99.90;;;;;;4999285;28;20111;-84
2023/10/16 01:21:46;;;;;;;1.30;0.60;;;7.40;99.90;;;;;;5052700;28;20037;-84
2023/10/16 01:24:12;;;;;;;0.75;0.28;;;7.50;99.90;;;;;;5005824;28;20102;-85
2023/10/16 01:26:42;;;;;;;1.90;0.50;;;7.60;99.90;;;;;;5040360;28;20037;-84
2023/10/16 01:29:13;;;;;;;0.93;0.30;;;7.60;99.90;;;;;;5006321;28;20124;-84
2023/10/16 01:31:40;;;;;;;1.05;0.45;;;7.60;99.90;;;;;;5015830;28;20132;-84
2023/10/16 01:34:10;;;;;;;2.90;0.50;;;7.60;99.90;;;;;;5040570;28;20037;-84
2023/10/16 01:36:46;;;;;;;1.85;0.45;;;7.70;99.90;;;;;;5015201;28;20067;-84
2023/10/16 01:39:47;;;;;;;2.63;0.32;;;7.60;99.90;;;;;;5022058;28;20397;-85
2023/10/16 01:42:02;;;;;;;0.75;0.40;;;7.70;99.90;;;;;;5035687;28;20041;-84
2023/10/16 01:44:29;;;;;;;1.30;0.28;;;7.70;99.90;;;;;;5043590;28;20049;-84
2023/10/16 01:46:55;;;;;;;;;;;7.70;99.90;;;;;;5037031;28;20345;-84
2023/10/16 01:49:24;;;;;;;1.10;0.40;;;7.60;99.90;;;;;;5041331;28;19917;-85
2023/10/16 01:51:51;;;;;;;0.55;0.20;;;7.60;99.90;;;;;;5062141;28;20057;-84
2023/10/16 01:54:22;;;;;;;1.08;0.38;;;7.60;99.90;;;;;;5038586;28;20037;-84
2023/10/16 01:56:49;;;;;;;1.42;0.40;;;7.40;99.90;;;;;;5034828;28;20047;-84
2023/10/16 01:59:15;;;;;;;0.40;0.40;;;7.40;99.90;;;;;;5036465;28;20083;-84
2023/10/16 02:01:41;;;;;;;1.42;0.32;;;7.50;99.90;;;;;;5045543;28;20106;-84
2023/10/16 02:04:07;;;;;;;0.95;0.40;;;7.40;99.90;;;;;;5028767;28;20032;-84
2023/10/16 02:06:33;;;;;;;0.68;0.40;;;7.40;99.90;;;;;;5023426;28;20741;-84
2023/10/16 02:08:59;;;;;;;2.38;0.50;;;7.50;99.90;;;;;;5030782;28;20110;-84
2023/10/16 02:11:25;;;;;;;;;;;7.50;99.90;;;;;;5033839;28;20392;-85
2023/10/16 02:13:51;;;;;;;0.80;0.25;;;7.50;99.90;;;;;;5042588;28;20007;-85
2023/10/16 02:16:18;;;;;;;0.93;0.32;;;7.50;99.90;;;;;;5042249;28;20840;-85
2023/10/16 02:18:47;;;;;;;2.92;0.55;;;7.50;99.90;;;;;;5040728;28;20495;-84
2023/10/16 02:21:14;;;;;;;0.38;0.28;;;7.50;99.90;;;;;;5038545;28;20044;-84
2023/10/16 02:23:40;;;;;;;;;;;7.50;99.90;;;;;;5027602;28;20045;-84
2023/10/16 02:26:06;;;;;;;2.03;0.50;;;7.50;99.90;;;;;;5048185;28;19916;-84
2023/10/16 02:28:33;;;;;;;3.25;0.50;;;7.50;99.90;;;;;;5042245;28;20068;-84
2023/10/16 02:31:17;;;;;;;1.77;0.40;;;7.60;99.90;;;;;;5061005;28;20056;-84
2023/10/16 02:33:51;;;;;;;1.05;0.50;;;7.60;99.90;;;;;;5054133;28;20115;-84
2023/10/16 02:36:23;;;;;;;2.38;0.57;;;7.60;99.90;;;;;;5056706;28;20052;-84
2023/10/16 02:38:53;;;;;;;2.08;0.50;;;7.60;99.90;;;;;;5014507;28;20677;-84
2023/10/16 02:41:19;;;;;;;1.40;0.40;;;7.50;99.90;;;;;;5057065;28;20051;-84
2023/10/16 02:43:47;;;;;;;1.27;0.35;;;7.60;99.90;;;;;;5052719;28;20052;-84
2023/10/16 02:46:21;;;;;;;0.93;0.40;;;7.60;99.90;;;;;;5034160;28;20391;-84
2023/10/16 02:48:47;;;;;;;1.83;0.40;;;7.50;99.90;;;;;;5055648;28;20537;-85
2023/10/16 02:51:16;;;;;;;1.90;0.50;;;7.50;99.90;;;;;;5031293;28;20044;-84
2023/10/16 02:53:43;;;;;;;1.65;0.50;;;7.60;99.90;;;;;;5065834;28;20041;-84
2023/10/16 02:56:14;;;;;;;1.48;0.50;;;7.60;99.90;;;;;;5046333;28;20404;-84
2023/10/16 02:58:46;;;;;;;0.70;0.28;;;7.50;99.90;;;;;;5063108;28;20055;-84
2023/10/16 03:01:18;;;;;;;1.33;0.40;;;7.50;99.90;;;;;;5040432;28;20040;-84
2023/10/16 03:03:53;;;;;;;1.38;0.80;;;7.50;99.90;;;;;;5057429;28;20111;-85
2023/10/16 03:06:19;;;;;;;1.25;0.40;;;7.60;99.90;;;;;;5047350;28;20041;-84
2023/10/16 03:08:48;;;;;;;2.05;0.50;;;7.60;99.90;;;;;;5062003;28;20032;-84
2023/10/16 03:11:15;;;;;;;1.80;0.50;;;7.70;99.90;;;;;;5068397;28;20123;-84
2023/10/16 03:13:43;;;;;;;1.50;0.57;;;7.60;99.90;;;;;;5028827;28;20065;-84
2023/10/16 03:16:29;;;;;;;2.92;0.70;;;7.70;99.90;;;;;;5039608;28;20120;-84
2023/10/16 03:19:09;;;;;;;1.25;0.40;;;7.80;99.90;;;;;;5053187;28;20049;-84
2023/10/16 03:21:35;;;;;;;2.42;0.60;;;7.80;99.90;;;;;;5047525;28;20048;-84
2023/10/16 03:24:00;;;;;;;1.25;0.60;;;7.90;99.90;;;;;;5050342;28;20475;-84
2023/10/16 03:26:30;;;;;;;0.90;0.50;;;7.80;99.90;;;;;;5033459;28;20037;-84
2023/10/16 03:28:57;;;;;;;2.95;1.08;;;7.80;99.90;;;;;;5044379;28;20041;-84
2023/10/16 03:31:24;;;;;;;2.00;0.60;;;7.90;99.90;;;;;;5035580;28;20036;-83
2023/10/16 03:33:50;;;;;;;3.95;0.90;;;8.00;99.90;;;;;;5029587;28;20032;-85
2023/10/16 03:36:17;;;;;;;3.08;0.90;;;8.00;99.90;;;;;;5027466;28;20036;-84
2023/10/16 03:38:43;;;;;;;1.60;0.60;;;8.20;99.90;;;;;;5037388;28;20045;-84
2023/10/16 03:41:31;;;;;;;1.77;0.45;;;8.10;99.90;;;;;;5052647;28;20076;-85
2023/10/16 03:43:58;;;;;;;1.67;0.50;;;8.00;99.90;;;;;;5015071;28;20052;-84
2023/10/16 03:46:28;;;;;;;2.30;0.70;;;8.20;99.90;;;;;;5037121;28;20079;-85
2023/10/16 03:48:56;;;;;;;1.48;0.43;;;8.10;99.90;;;;;;5039552;28;20033;-84
2023/10/16 03:51:22;;;;;;;1.35;0.50;;;8.20;99.90;;;;;;5047893;28;20041;-84
2023/10/16 03:53:51;;;;;;;2.85;0.60;;;8.30;99.90;;;;;;5026680;28;20400;-84
2023/10/16 03:56:17;;;;;;;1.50;0.30;;;8.20;99.90;;;;;;5043691;28;20033;-84
2023/10/16 03:58:44;;;;;;;;;;;8.20;99.90;;;;;;5035659;28;20040;-86
2023/10/16 04:01:11;;;;;;;2.43;0.30;;;8.10;99.90;;;;;;5028474;28;19932;-86
2023/10/16 04:03:47;;;;;;;2.30;0.60;;;8.20;99.90;;;;;;5041918;28;20307;-86
2023/10/16 04:06:20;;;;;;;2.45;0.50;;;8.10;99.90;;;;;;5025723;28;20473;-86
2023/10/16 04:08:47;;;;;;;2.33;0.50;;;8.10;99.90;;;;;;5038073;28;20099;-86
2023/10/16 04:11:14;;;;;;;2.58;0.63;;;8.10;99.90;;;;;;5040808;28;20084;-87
2023/10/16 04:13:47;;;;;;;2.65;0.60;;;8.30;99.90;;;;;;5038658;28;20080;-87
2023/10/16 04:21:54;;;;;;;2.78;0.70;;;8.20;99.90;;;;;;5052264;28;20052;-87
2023/10/16 04:29:45;;;;;;;1.23;0.40;;;7.90;99.90;;;;;;5056517;28;20079;-86
2023/10/16 04:34:52;;;;;;;1.52;0.30;;;7.80;99.90;;;;;;5033213;28;20079;-85
2023/10/16 04:47:56;;;;;;;0.40;0.20;;;7.80;99.90;;;;;;5041885;28;20041;-86
2023/10/16 05:01:03;;;;;;;1.42;0.70;;;7.70;99.90;;;;;;5060499;28;20045;-85
2023/10/16 05:11:24;;;;;;;3.17;0.50;;;7.80;99.90;;;;;;5048930;28;20492;-86
2023/10/16 06:16:22;;;;;;;1.30;0.50;;;7.70;99.90;;;;;;5033489;28;20423;-85
2023/10/16 06:18:48;;;;;;;0.90;0.43;;;7.90;99.90;;;;;;5019035;28;20034;-85
2023/10/16 06:21:15;;;;;;;1.48;0.60;;;7.90;99.90;;;;;;5028799;28;20072;-85
2023/10/16 06:23:42;;;;;;;2.15;0.70;;;7.90;99.90;;;;;;5026791;28;20033;-83
2023/10/16 06:26:09;;;;;;;2.22;0.77;;;8.00;99.90;;;;;;5030639;28;20124;-84
2023/10/16 06:28:39;;;;;;;1.63;0.98;;;7.80;99.90;;;;;;5038318;28;20045;-84
2023/10/16 06:31:05;;;;;;;2.42;0.80;;;7.80;99.90;;;;;;5028839;28;20479;-84
2023/10/16 06:33:31;;;;;;;;;;;7.80;99.90;;;;;;5011894;28;20037;-84
2023/10/16 06:35:57;;;;;;;2.28;0.70;;;7.90;99.90;;;;;;5030396;28;19947;-85
2023/10/16 06:38:24;;;;;;;1.13;0.50;;;7.80;99.90;;;;;;5007842;28;20136;-84
2023/10/16 06:40:55;;;;;;;0.85;0.50;;;7.90;99.90;;;;;;5010553;28;20068;-84
2023/10/16 06:43:25;;;;;;;1.30;0.63;;;7.90;99.90;;;;;;5041016;28;20057;-84
2023/10/16 06:46:09;;;;;;;1.17;0.60;;;7.90;99.90;;;;;;5036936;28;20028;-83
2023/10/16 06:48:37;;;;;;;1.33;0.90;;;8.10;99.90;;;;;;5055803;28;20041;-83
2023/10/16 06:51:14;;;;;;;1.50;0.90;;;7.90;99.90;;;;;;5057097;28;20041;-82
2023/10/16 06:53:40;;;;;;;;;;;8.10;99.90;;;;;;5047912;28;20562;-84
2023/10/16 06:56:06;;;;;;;2.53;0.60;;;8.00;99.90;;;;;;5070592;28;19955;-84
2023/10/16 06:58:34;;;;;;;0.85;0.60;;;8.10;99.90;;;;;;5048064;28;20037;-84
2023/10/16 07:01:01;;;;;;;2.15;0.65;;;8.10;99.90;;;;;;5025455;28;20055;-84
2023/10/16 07:03:28;;;;;;;1.45;0.60;;;8.10;99.90;;;;;;5029697;28;20037;-87
2023/10/16 07:05:54;;;;;;;1.10;0.70;;;8.30;99.90;;;;;;5041734;28;20033;-86
2023/10/16 07:08:22;;;;;;;0.88;0.50;;;8.40;99.90;;;;;;5050683;28;20064;-84
2023/10/16 07:10:55;;;;;;;1.48;0.70;;;8.50;99.90;;;;;;5035392;28;20032;-85
2023/10/16 07:13:28;;;;;;;1.75;0.70;;;8.40;99.90;;;;;;5036080;28;20110;-85
2023/10/16 07:16:02;;;;;;;3.15;0.80;;;8.60;99.90;;;;;;5056391;28;20044;-85
2023/10/16 07:18:31;;;;;;;2.03;0.70;;;8.60;99.90;;;;;;5056626;28;20518;-84
2023/10/16 07:23:34;;;;;;;1.42;0.70;;;8.80;99.90;;;;;;5052605;28;20055;-84
2023/10/16 07:26:01;;;;;;;2.75;0.75;;;8.70;99.90;;;;;;5055585;28;20068;-84
2023/10/16 07:28:28;;;;;;;2.58;0.60;;;8.90;99.90;;;;;;5064572;28;20041;-85
2023/10/16 07:30:59;;;;;;;2.05;0.90;;;8.90;99.90;;;;;;5047746;28;20033;-84
2023/10/16 07:33:25;;;;;;;1.45;0.60;;;8.90;99.90;;;;;;5009053;28;20128;-85
2023/10/16 07:35:53;;;;;;;1.70;0.70;;;8.90;99.90;;;;;;5020003;28;20045;-84
2023/10/16 07:38:21;;;;;;;1.55;0.50;;;9.00;99.90;;;;;;5020468;28;20041;-85
2023/10/16 07:40:51;;;;;;;2.05;0.90;;;9.20;99.90;;;;;;5053523;28;20124;-84
2023/10/16 07:43:27;;;;;;;2.22;0.70;;;9.10;99.90;;;;;;5036481;28;20076;-85
2023/10/16 07:46:16;;;;;;;2.17;0.80;;;9.30;99.90;;;;;;5041452;28;20040;-85
2023/10/16 07:49:01;;;;;;;1.77;0.80;;;9.20;99.90;;;;;;5040404;28;20028;-85
2023/10/16 07:51:27;;;;;;;2.35;0.93;;;9.20;99.90;;;;;;5040049;28;20032;-85
2023/10/16 07:53:56;;;;;;;2.85;1.20;;;9.20;99.90;;;;;;5031117;28;20040;-85
2023/10/16 07:56:25;;;;;;;2.80;1.00;;;9.30;99.90;;;;;;5045223;28;20403;-84
2023/10/16 07:58:56;;;;;;;5.10;1.02;;;9.40;99.90;;;;;;5074348;28;20113;-85
2023/10/16 08:01:32;;;;;;;2.42;0.95;;;9.40;99.90;;;;;;5039875;28;20037;-85
2023/10/16 08:03:58;;;;;;;4.68;1.00;;;9.50;99.90;;;;;;5028261;28;20396;-85
2023/10/16 08:06:25;;;;;;;;;;;9.50;99.90;;;;;;5036684;28;20064;-85
2023/10/16 08:11:36;;;;;;;2.15;0.70;;;9.70;99.90;;;;;;5055693;28;20044;-85
2023/10/16 08:14:06;;;;;;;2.03;0.63;;;9.60;99.90;;;;;;5053677;28;20045;-84
2023/10/16 08:16:32;;;;;;;0.98;0.30;;;9.80;99.90;;;;;;5023833;28;20044;-85
2023/10/16 08:18:58;;;;;;;1.40;0.55;;;9.80;99.90;;;;;;5017153;28;20056;-84
2023/10/16 08:21:26;;;;;;;2.13;0.60;;;9.90;99.90;;;;;;5056199;28;20044;-85
2023/10/16 08:23:53;;;;;;;2.45;0.55;;;10.00;99.90;;;;;;5032583;28;20079;-85
2023/10/16 08:26:29;;;;;;;0.90;0.50;;;9.90;99.90;;;;;;5042114;28;20499;-85
2023/10/16 08:31:47;;;;;;;2.58;0.50;;;10.10;99.90;;;;;;5061867;28;20118;-85
2023/10/16 08:34:19;;;;;;;1.83;0.60;;;10.30;99.90;;;;;;5043706;28;20044;-85
2023/10/16 08:36:53;;;;;;;1.38;0.50;;;10.30;99.90;;;;;;5051654;28;20032;-84
2023/10/16 08:39:21;;;;;;;1.95;0.50;;;10.40;99.90;;;;;;5069469;28;20483;-85
2023/10/16 08:42:00;;;;;;;2.47;0.50;;;10.50;99.90;;;;;;5039100;28;20534;-84
2023/10/16 08:44:28;;;;;;;1.67;0.50;;;10.60;99.90;;;;;;5038534;28;20052;-84
2023/10/16 08:49:25;;;;;;;2.42;0.60;;;10.50;99.90;;;;;;5055580;28;20044;-86
2023/10/16 08:52:10;;;;;;;1.58;0.50;;;10.40;99.90;;;;;;5055378;28;20432;-86
2023/10/16 08:57:22;;;;;;;2.92;0.95;;;10.50;99.90;;;;;;5055213;28;20080;-86
2023/10/16 08:59:50;;;;;;;3.45;0.70;;;10.60;99.90;;;;;;5039637;28;20500;-86
2023/10/16 09:02:19;;;;;;;1.73;0.68;;;10.60;99.90;;;;;;5026199;28;20762;-85
2023/10/16 09:04:49;;;;;;;2.83;0.88;;;10.70;99.90;;;;;;5055808;28;20037;-86
2023/10/16 09:07:19;;;;;;;3.80;1.20;;;10.70;99.90;;;;;;5056044;28;20040;-85
2023/10/16 09:09:48;;;;;;;2.05;0.93;;;10.70;99.90;;;;;;5022513;28;20519;-85
2023/10/16 09:12:26;;;;;;;3.22;0.90;;;10.70;99.90;;;;;;5041330;28;20036;-85
2023/10/16 09:14:53;;;;;;;1.50;0.65;;;10.60;99.90;;;;;;5062403;28;20120;-85
2023/10/16 09:17:23;;;;;;;2.05;0.80;;;10.60;99.90;;;;;;5037984;28;20040;-85
2023/10/16 09:19:53;;;;;;;1.52;0.60;;;10.60;99.90;;;;;;5038203;28;20078;-85
2023/10/16 09:22:26;;;;;;;3.80;1.10;;;10.70;99.90;;;;;;5054912;28;20036;-85
2023/10/16 09:24:52;;;;;;;4.30;0.85;;;10.70;99.90;;;;;;5050820;28;20369;-86
2023/10/16 09:27:22;;;;;;;4.25;1.08;;;10.60;99.90;;;;;;5021940;28;20111;-86
2023/10/16 09:29:55;;;;;;;3.50;0.77;;;10.70;99.90;;;;;;5038543;28;20032;-87
2023/10/16 09:32:25;;;;;;;3.28;0.80;;;10.80;99.90;;;;;;5038124;28;20050;-90
2023/10/16 09:35:05;;;;;;;3.13;0.90;;;10.70;99.90;;;;;;5054373;28;20389;-87
2023/10/16 09:37:34;;;;;;;1.45;0.52;;;10.70;99.90;;;;;;5055268;28;20110;-87
2023/10/16 09:40:35;;;;;;;2.88;0.98;;;10.70;99.90;;;;;;5052174;28;20041;-87
2023/10/16 09:43:05;;;;;;;2.58;0.95;;;10.70;99.90;;;;;;5068610;28;20048;-86
2023/10/16 09:45:36;;;;;;;2.80;0.70;;;10.80;99.90;;;;;;5038694;28;20081;-86
2023/10/16 09:48:08;;;;;;;2.53;0.63;;;10.80;99.90;;;;;;5035647;28;20456;-85
2023/10/16 09:50:37;;;;;;;1.40;0.47;;;10.80;99.90;;;;;;5049438;28;20068;-85
2023/10/16 09:53:07;;;;;;;3.45;0.70;;;10.90;99.90;;;;;;5032694;28;20048;-85
2023/10/16 09:55:44;;;;;;;2.80;0.70;;;11.10;99.90;;;;;;5025987;28;20412;-85
2023/10/16 09:58:11;;;;;;;2.13;0.60;;;11.20;99.90;;;;;;5068878;28;20048;-85
2023/10/16 10:00:46;;;;;;;1.33;0.50;;;11.30;99.90;;;;;;5038168;28;20047;-85
2023/10/16 10:03:14;;;;;;;3.35;0.80;;;11.40;99.90;;;;;;5038357;28;20037;-84
2023/10/16 10:08:38;;;;;;;1.25;0.60;;;11.50;99.90;;;;;;5054339;28;20055;-85
2023/10/16 10:11:17;;;;;;;4.68;0.80;;;11.50;99.90;;;;;;5038297;28;20032;-85
2023/10/16 10:16:37;;;;;;;3.05;0.80;;;11.60;99.90;;;;;;5054053;28;20045;-85
2023/10/16 10:19:31;;;;;;;1.35;0.40;;;11.80;99.90;;;;;;5036959;28;20040;-85
2023/10/16 10:22:05;;;;;;;1.83;0.60;;;11.80;99.90;;;;;;5037645;28;20044;-85
2023/10/16 10:24:35;;;;;;;3.13;0.60;;;11.90;99.90;;;;;;5053828;28;20036;-85
2023/10/16 10:27:03;;;;;;;2.30;0.70;;;12.00;99.90;;;;;;5028622;28;20400;-86
2023/10/16 10:29:29;;;;;;;2.17;0.60;;;12.10;99.90;;;;;;5037406;28;20537;-85
2023/10/16 10:32:06;;;;;;;2.63;0.55;;;12.30;99.90;;;;;;5038056;28;20041;-86
2023/10/16 10:34:32;;;;;;;4.35;1.00;;;12.40;99.90;;;;;;5034198;28;20445;-86
2023/10/16 10:37:00;;;;;;;1.92;0.50;;;12.60;99.90;;;;;;5031069;28;20100;-78
2023/10/16 10:42:09;;;;;;;3.30;0.68;;;12.60;99.90;;;;;;5051113;28;20060;-80
2023/10/16 10:44:44;;;;;;;1.52;0.50;;;12.70;99.90;;;;;;5054207;28;20131;-79
2023/10/16 10:47:24;;;;;;;3.08;0.63;;;12.60;99.90;;;;;;5061908;28;20070;-80
2023/10/16 10:50:00;;;;;;;1.65;0.43;;;12.70;99.90;;;;;;5024768;28;20032;-81
2023/10/16 10:52:31;;;;;;;1.40;0.40;;;12.70;99.90;;;;;;5026692;28;20068;-80
2023/10/16 10:54:58;;;;;;;1.17;0.38;;;12.90;99.90;;;;;;5036660;28;20391;-79
2023/10/16 10:57:25;;;;;;;1.40;0.40;;;13.10;99.90;;;;;;5030850;28;20040;-79
2023/10/16 11:00:22;;;;;;;2.83;1.05;;;13.40;99.90;;;;;;5026570;28;20036;-80
2023/10/16 11:05:22;;;;;;;1.85;0.50;;;13.50;90.80;;;;;;5064244;28;20048;-79
2023/10/16 11:08:17;;;;;;;1.55;0.65;;;13.50;99.90;;;;;;5041424;28;20044;-79
2023/10/16 11:10:46;;;;;;;2.17;0.60;;;13.40;87.90;;;;;;5042259;28;20070;-78
2023/10/16 11:13:14;;;;;;;1.58;0.55;;;13.10;62.80;;;;;;5039205;28;20693;-79
2023/10/16 11:15:52;;;;;;;3.03;0.65;;;13.00;97.40;;;;;;5033213;28;20048;-79
2023/10/16 11:18:19;;;;;;;3.13;0.40;;;12.80;35.80;;;;;;5058883;28;20040;-79
2023/10/16 11:20:49;;;;;;;3.70;0.80;;;12.70;99.90;;;;;;5018063;28;20044;-79
2023/10/16 11:23:17;;;;;;;2.85;0.52;;;12.50;92.90;;;;;;5038755;28;20052;-79
2023/10/16 11:25:45;;;;;;;5.30;0.73;;;12.50;99.90;;;;;;5041475;28;20041;-79
2023/10/16 11:28:21;;;;;;;3.70;1.00;;;12.40;99.90;;;;;;5059890;28;20111;-78
2023/10/16 11:30:49;;;;;;;2.55;0.90;;;12.40;99.90;;;;;;5050856;28;20032;-78
2023/10/16 11:33:44;;;;;;;2.72;0.80;;;12.50;99.90;;;;;;5030903;28;20529;-78
2023/10/16 11:36:13;;;;;;;4.22;0.88;;;12.60;99.90;;;;;;5050161;28;20059;-79
2023/10/16 11:38:40;;;;;;;3.95;0.85;;;12.50;99.90;;;;;;5054817;28;20044;-79
2023/10/16 11:41:11;;;;;;;4.47;0.80;;;12.50;99.90;;;;;;5038871;28;20071;-79
2023/10/16 11:43:47;;;;;;;3.25;0.50;;;12.50;99.90;;;;;;5024539;28;20684;-80
2023/10/16 11:46:29;;;;;;;2.08;0.52;;;12.70;99.90;;;;;;5028356;28;20136;-79
2023/10/16 11:49:17;;;;;;;5.32;0.90;;;12.90;99.90;;;;;;5011324;28;20037;-80
2023/10/16 11:52:08;;;;;;;2.78;0.77;;;13.00;99.90;;;;;;5025335;28;20038;-82
2023/10/16 11:54:34;;;;;;;2.25;0.43;;;13.20;99.90;;;;;;5041802;28;20036;-80
2023/10/16 11:57:00;;;;;;;2.50;0.80;;;13.30;69.40;;;;;;5026421;28;20180;-80
2023/10/16 11:59:28;;;;;;;2.20;0.70;;;13.20;1.00;;;;;;5009569;28;20528;-79
2023/10/16 12:01:59;;;;;;;2.83;0.70;;;13.10;1.00;;;;;;5050661;28;20199;-79
2023/10/16 12:04:26;;;;;;;4.07;0.85;;;13.00;1.00;;;;;;5018574;28;20478;-86
2023/10/16 12:06:53;;;;;;;3.20;0.70;;;13.00;87.60;;;;;;5045592;28;20515;-86
2023/10/16 12:09:19;;;;;;;1.67;0.55;;;12.80;62.70;;;;;;5013188;28;20034;-85
2023/10/16 12:11:50;;;;;;;3.13;0.57;;;12.80;69.40;;;;;;5032968;28;20029;-85
2023/10/16 12:14:19;;;;;;;3.63;0.90;;;12.70;92.20;;;;;;5038723;28;20120;-85
2023/10/16 12:16:46;;;;;;;2.80;0.80;;;12.70;2.60;;;;;;5027974;28;20033;-86
2023/10/16 12:19:16;;;;;;;4.05;0.93;;;12.60;7.00;;;;;;5012881;28;20044;-85
2023/10/16 12:21:43;;;;;;;3.88;0.73;;;12.60;1.00;;;;;;5042461;28;20134;-85
2023/10/16 12:24:13;;;;;;;2.53;0.75;;;12.60;1.00;;;;;;5040227;28;20037;-84
2023/10/16 12:26:40;;;;;;;3.03;1.00;;;12.60;1.00;;;;;;5018773;28;20033;-85
2023/10/16 12:29:08;;;;;;;2.33;0.60;;;12.60;1.00;;;;;;5036767;28;20037;-85
2023/10/16 12:31:40;;;;;;;3.80;1.00;;;12.70;37.00;;;;;;5040396;28;20051;-85
2023/10/16 12:34:10;;;;;;;4.57;0.80;;;12.70;2.90;;;;;;5021704;28;20073;-85
2023/10/16 12:36:42;;;;;;;3.00;0.88;;;12.70;1.00;;;;;;5026890;28;20484;-85
2023/10/16 12:39:24;;;;;;;2.20;0.70;;;12.70;1.00;;;;;;5012495;28;20432;-85
2023/10/16 12:41:57;;;;;;;3.30;0.70;;;12.80;99.90;;;;;;5030180;28;20035;-80
2023/10/16 12:44:23;;;;;;;3.10;0.77;;;13.00;30.20;;;;;;5032008;28;20049;-80
2023/10/16 12:46:50;;;;;;;;;;;13.20;29.30;;;;;;5041068;28;20036;-79
2023/10/16 12:49:15;;;;;;;1.52;0.60;;;13.30;1.00;;;;;;5029178;28;19925;-81
2023/10/16 12:51:42;;;;;;;2.53;0.93;;;13.30;1.00;;;;;;5030560;28;20028;-82
2023/10/16 12:54:12;;;;;;;2.45;0.73;;;13.30;99.90;;;;;;5033077;28;20048;-85
2023/10/16 12:56:43;;;;;;;2.72;0.93;;;13.30;99.90;;;;;;5043807;28;20499;-86
2023/10/16 12:59:10;;;;;;;3.55;0.80;;;13.30;99.90;;;;;;5029862;28;20055;-87
2023/10/16 13:01:36;;;;;;;2.90;0.77;;;13.40;99.90;;;;;;5030157;28;20036;-87
2023/10/16 13:04:06;;;;;;;2.53;0.70;;;13.40;99.90;;;;;;5044122;28;20542;-87
2023/10/16 13:06:32;;;;;;;2.67;0.63;;;13.50;99.90;;;;;;5036636;28;20035;-87
2023/10/16 13:09:00;;;;;;;4.22;0.90;;;13.50;99.90;;;;;;5034058;28;20037;-88
2023/10/16 13:11:27;;;;;;;4.55;0.70;;;13.40;99.90;;;;;;5037718;28;20044;-87
2023/10/16 13:13:55;;;;;;;7.25;1.33;;;13.40;99.90;;;;;;5059555;28;20097;-87
2023/10/16 13:16:24;;;;;;;3.08;0.60;;;13.30;99.90;;;;;;5037209;28;20044;-87
2023/10/16 13:18:57;;;;;;;1.90;0.68;;;13.40;99.90;;;;;;5035683;28;20066;-87
2023/10/16 13:21:33;;;;;;;3.67;1.00;;;13.30;99.90;;;;;;5030098;28;20055;-86
2023/10/16 13:24:04;;;;;;;1.52;0.55;;;13.30;99.90;;;;;;5039151;28;20047;-86
2023/10/16 13:26:31;;;;;;;4.32;1.00;;;13.40;99.90;;;;;;5056105;28;20043;-86
2023/10/16 13:28:57;;;;;;;3.90;0.77;;;13.20;99.90;;;;;;5026943;28;20037;-86
2023/10/16 13:31:23;;;;;;;2.92;0.65;;;13.10;99.90;;;;;;5029858;28;20114;-87
2023/10/16 13:33:50;;;;;;;2.75;0.80;;;13.10;99.90;;;;;;5040383;28;20492;-85
2023/10/16 13:36:17;;;;;;;4.45;0.90;;;13.10;99.90;;;;;;5030933;28;20041;-86
2023/10/16 13:38:48;;;;;;;3.15;0.70;;;13.00;99.90;;;;;;5056710;28;20044;-80
2023/10/16 13:41:19;;;;;;;3.05;0.60;;;13.00;99.90;;;;;;5054386;28;20084;-80
2023/10/16 13:43:46;;;;;;;3.60;0.60;;;13.10;99.90;;;;;;5038228;28;20084;-86
2023/10/16 13:46:16;;;;;;;2.08;0.70;;;13.20;99.90;;;;;;5051112;28;20041;-87
2023/10/16 13:48:48;;;;;;;3.70;0.80;;;13.00;99.90;;;;;;5025050;28;20073;-86
2023/10/16 13:51:18;;;;;;;1.45;0.52;;;13.10;99.90;;;;;;5035009;28;20507;-83
2023/10/16 13:53:46;;;;;;;2.85;0.63;;;13.10;99.90;;;;;;5051472;28;20590;-83
2023/10/16 13:56:16;;;;;;;3.70;0.82;;;13.00;99.90;;;;;;5014612;28;20037;-85
2023/10/16 13:58:45;;;;;;;1.67;0.60;;;12.90;99.90;;;;;;5034036;28;20488;-84
2023/10/16 14:01:11;;;;;;;1.55;0.55;;;12.80;99.90;;;;;;5024592;28;20037;-84
2023/10/16 14:03:42;;;;;;;2.55;0.73;;;12.80;1.00;;;;;;5046081;28;20480;-84
2023/10/16 14:06:22;;;;;;;3.88;0.65;;;12.80;99.90;;;;;;5061491;28;20098;-83
2023/10/16 14:08:52;;;;;;;3.42;0.80;;;12.80;99.90;;;;;;5035842;28;20036;-84
2023/10/16 14:11:28;;;;;;;2.60;0.63;;;12.70;99.90;;;;;;5054570;28;20048;-85
2023/10/16 14:13:54;;;;;;;1.60;0.40;;;12.70;1.00;;;;;;5064710;28;20503;-86
2023/10/16 14:16:32;;;;;;;2.40;0.65;;;12.80;1.00;;;;;;5038477;28;20055;-86
2023/10/16 14:18:58;;;;;;;3.10;0.57;;;12.80;99.90;;;;;;5055237;28;20102;-86
2023/10/16 14:21:24;;;;;;;1.80;0.50;;;12.70;99.90;;;;;;5038170;28;20041;-86
2023/10/16 14:23:50;;;;;;;2.65;0.70;;;12.80;1.00;;;;;;5024671;28;20033;-87
2023/10/16 14:26:24;;;;;;;2.15;0.68;;;12.80;1.00;;;;;;5038640;28;20064;-81
2023/10/16 14:28:59;;;;;;;3.15;0.90;;;12.70;99.90;;;;;;5062093;28;20480;-81
2023/10/16 14:31:33;;;;;;;1.85;0.60;;;12.70;99.90;;;;;;5045193;28;20120;-81
2023/10/16 14:33:59;;;;;;;3.05;0.75;;;12.70;1.00;;;;;;5063001;28;20052;-81
2023/10/16 14:36:25;;;;;;;2.17;0.80;;;12.70;1.00;;;;;;5056828;28;20120;-81
2023/10/16 14:38:54;;;;;;;2.58;0.68;;;12.70;1.00;;;;;;5062599;28;20408;-81
2023/10/16 14:41:20;;;;;;;2.38;0.60;;;12.60;99.90;;;;;;5055761;28;20051;-81
2023/10/16 14:43:45;;;;;;;2.42;0.52;;;12.50;99.90;;;;;;5022434;28;20124;-81
2023/10/16 14:46:12;;;;;;;2.63;0.73;;;12.60;1.00;;;;;;5028707;28;20551;-81
2023/10/16 14:48:44;;;;;;;2.92;0.55;;;12.50;1.00;;;;;;5053838;28;20086;-81
2023/10/16 14:51:12;;;;;;;2.20;0.68;;;12.50;1.00;;;;;;5037302;28;20068;-81
2023/10/16 14:53:40;;;;;;;2.70;0.80;;;12.40;1.00;;;;;;5053252;28;20045;-82
2023/10/16 14:56:08;;;;;;;2.63;0.50;;;12.40;5.00;;;;;;5015648;28;20045;-82
2023/10/16 14:58:34;;;;;;;1.05;0.52;;;12.40;6.60;;;;;;5038282;28;20045;-81
2023/10/16 15:01:14;;;;;;;1.63;0.55;;;12.40;1.00;;;;;;5025043;28;20045;-80
2023/10/16 15:03:39;;;;;;;1.63;0.50;;;12.40;1.00;;;;;;5057329;28;20040;-80
2023/10/16 15:06:05;;;;;;;1.67;0.43;;;12.40;1.00;;;;;;5043108;28;20514;-81
2023/10/16 15:08:31;;;;;;;1.48;0.88;;;12.40;1.40;;;;;;5043386;28;20033;-80
2023/10/16 15:10:58;;;;;;;4.05;0.75;;;12.30;1.00;;;;;;5015128;28;20036;-81
2023/10/16 15:13:27;;;;;;;3.90;1.00;;;12.30;6.80;;;;;;5061565;28;20048;-80
2023/10/16 15:15:55;;;;;;;1.92;0.80;;;12.30;1.00;;;;;;5058243;28;20044;-81
2023/10/16 15:18:21;;;;;;;2.22;0.85;;;12.30;1.00;;;;;;5038432;28;20044;-80
2023/10/16 15:20:47;;;;;;;4.30;1.15;;;12.20;20.20;;;;;;5036058;28;20045;-80